Time;durP1;ratioP1;P1;durP2;ratioP2;P2;SDS_P1;SDS_P2;PMS_P1;PMS_P2;Temp;Humidity;BMP_temperature;BMP_pressure;BME280_temperature;BME280_humidity;BME280_pressure;Samples;Min_cycle;Max_cycle;Signal;HPM_P1;HPM_P2
2022/02/16 00:00:52;;;;;;;2.57;1.30;;;5.20;71.20;;;5.35;58.56;97272.84;6265699;22;20037;-38
2022/02/16 00:03:20;;;;;;;3.93;1.60;;;5.20;71.40;;;5.39;58.50;97268.97;6265978;22;20012;-39
2022/02/16 00:05:48;;;;;;;3.17;1.50;;;5.30;71.60;;;5.41;58.87;97274.06;6265744;22;20209;-36
2022/02/16 00:08:16;;;;;;;4.33;1.83;;;5.30;71.60;;;5.43;58.12;97261.56;6265323;22;20010;-36
2022/02/16 00:10:44;;;;;;;13.60;1.80;;;5.30;71.70;;;5.47;59.08;97273.56;6264409;22;20020;-37
2022/02/16 00:13:12;;;;;;;3.83;1.50;;;5.30;71.90;;;5.48;58.46;97262.00;6266334;22;20019;-38
2022/02/16 00:15:40;;;;;;;3.50;1.23;;;5.30;71.70;;;5.50;58.61;97260.06;6266066;22;20015;-38
2022/02/16 00:18:08;;;;;;;2.07;1.20;;;5.40;71.50;;;5.58;58.71;97270.75;6266601;22;20024;-38
2022/02/16 00:20:36;;;;;;;3.47;1.40;;;5.50;71.50;;;5.64;58.54;97272.84;6264928;22;20118;-38
2022/02/16 00:23:05;;;;;;;3.07;1.67;;;5.50;71.40;;;5.66;58.04;97268.28;6265272;22;20313;-38
2022/02/16 00:25:33;;;;;;;1.80;1.30;;;5.60;71.00;;;5.72;58.96;97270.34;6266238;22;20026;-38
2022/02/16 00:28:00;;;;;;;4.37;2.10;;;5.60;71.20;;;5.77;58.22;97258.53;6264407;22;20024;-37
2022/02/16 00:30:30;;;;;;;0.97;0.83;;;5.70;71.00;;;5.82;58.70;97251.03;6263960;22;20023;-37
2022/02/16 00:32:59;;;;;;;2.70;1.17;;;5.80;70.80;;;5.84;57.85;97254.34;6264565;22;20026;-37
2022/02/16 00:35:27;;;;;;;2.77;1.20;;;5.80;70.10;;;5.92;58.43;97250.00;6264760;22;20228;-38
2022/02/16 00:37:56;;;;;;;2.80;1.40;;;5.90;70.30;;;6.00;58.38;97262.56;6266968;22;20022;-37
2022/02/16 00:40:24;;;;;;;1.53;0.90;;;6.00;70.20;;;6.06;58.25;97254.06;6264178;22;20038;-37
2022/02/16 00:42:52;;;;;;;2.23;1.77;;;6.00;70.00;;;6.10;57.65;97260.72;6262435;22;20027;-37
2022/02/16 00:45:20;;;;;;;1.37;1.03;;;6.10;69.80;;;6.15;57.19;97262.13;6263765;22;20204;-37
2022/02/16 00:47:48;;;;;;;2.00;1.10;;;6.10;69.70;;;6.09;57.66;97253.78;6267284;22;20020;-37
2022/02/16 00:50:16;;;;;;;0.77;0.70;;;6.20;69.40;;;6.14;58.54;97237.47;6239268;22;20030;-37
2022/02/16 00:52:44;;;;;;;1.43;0.87;;;6.20;69.70;;;6.20;57.84;97238.72;6238350;22;20033;-37
2022/02/16 00:55:11;;;;;;;1.90;1.00;;;6.20;69.80;;;6.24;58.51;97245.38;6266059;22;20023;-37
2022/02/16 00:57:39;;;;;;;2.63;0.90;;;6.20;69.60;;;6.24;58.01;97234.81;6264933;22;20027;-37
2022/02/16 01:00:08;;;;;;;2.93;1.10;;;6.30;69.60;;;6.26;57.32;97217.00;6265868;22;20030;-37
2022/02/16 01:02:44;;;;;;;1.23;0.73;;;6.30;69.70;;;6.26;57.84;97220.50;6237744;22;20020;-38
2022/02/16 01:05:12;;;;;;;1.90;1.20;;;6.30;69.90;;;6.19;57.77;97214.09;6262193;22;20030;-37
2022/02/16 01:07:42;;;;;;;1.23;0.60;;;6.30;69.90;;;6.21;57.85;97213.97;6265757;22;20023;-37
2022/02/16 01:10:13;;;;;;;1.83;0.80;;;6.30;69.90;;;6.27;57.67;97219.50;6238052;22;20023;-37
2022/02/16 01:12:48;;;;;;;2.00;0.83;;;6.30;70.10;;;6.29;57.89;97214.06;6237751;22;20024;-37
2022/02/16 01:15:17;;;;;;;3.27;1.10;;;6.30;70.20;;;6.34;58.15;97217.13;6237394;22;20019;-37
2022/02/16 01:17:45;;;;;;;1.17;0.83;;;6.40;70.10;;;6.29;58.36;97217.53;6265173;22;20212;-37
2022/02/16 01:20:19;;;;;;;2.20;0.80;;;6.40;70.00;;;6.24;58.00;97216.31;6265463;22;20028;-37
2022/02/16 01:22:56;;;;;;;1.50;0.67;;;6.40;70.10;;;6.32;58.44;97211.16;6266774;22;20027;-37
2022/02/16 01:25:24;;;;;;;2.03;0.80;;;6.40;70.30;;;6.29;58.00;97214.91;6240088;22;20024;-37
2022/02/16 01:27:52;;;;;;;1.13;0.70;;;6.40;70.20;;;6.30;58.65;97199.84;6265948;22;20236;-37
2022/02/16 01:30:23;;;;;;;1.37;0.80;;;6.40;70.20;;;6.34;58.17;97201.25;6264140;22;20027;-38
2022/02/16 01:33:03;;;;;;;3.93;1.73;;;6.40;70.40;;;6.27;58.72;97211.56;6237904;22;20021;-37
2022/02/16 01:35:58;;;;;;;0.97;0.70;;;6.40;70.60;;;6.29;58.46;97187.63;6238177;22;20031;-37
2022/02/16 01:38:26;;;;;;;1.50;0.90;;;6.40;70.80;;;6.28;58.75;97193.88;6215469;22;20026;-38
2022/02/16 01:41:03;;;;;;;0.43;0.43;;;6.40;70.80;;;6.22;58.88;97200.59;6240300;22;20028;-38
2022/02/16 01:43:32;;;;;;;2.10;0.90;;;6.40;70.80;;;6.34;58.79;97195.13;6266956;22;20026;-38
2022/02/16 01:46:00;;;;;;;1.67;0.93;;;6.40;71.00;;;6.29;59.52;97183.16;6265052;22;20283;-38
2022/02/16 01:48:28;;;;;;;0.90;0.80;;;6.40;71.90;;;6.32;58.92;97190.00;6238101;22;20015;-38
2022/02/16 01:50:56;;;;;;;1.70;0.90;;;6.40;71.20;;;6.25;59.48;97175.69;6264947;22;20233;-37
2022/02/16 01:53:38;;;;;;;3.03;0.87;;;6.30;71.30;;;6.28;58.93;97175.38;6238192;22;20025;-38
2022/02/16 01:56:07;;;;;;;3.33;1.40;;;6.30;71.60;;;6.20;59.16;97189.31;6265331;22;20028;-39
2022/02/16 01:58:41;;;;;;;1.80;0.90;;;6.30;71.70;;;6.16;59.40;97166.81;6239430;22;20028;-38
2022/02/16 02:01:13;;;;;;;1.55;0.77;;;6.30;71.90;;;6.19;59.57;97163.06;6275184;22;20038;-38
2022/02/16 02:03:57;;;;;;;1.87;0.80;;;6.30;72.00;;;6.13;59.67;97153.03;6238360;22;20062;-37
2022/02/16 02:06:26;;;;;;;1.03;0.70;;;6.30;72.00;;;6.16;59.78;97150.13;6240616;22;20016;-37
2022/02/16 02:08:54;;;;;;;1.07;0.63;;;6.30;72.10;;;6.11;59.86;97147.94;6239718;22;20666;-38
2022/02/16 02:11:22;;;;;;;1.80;0.63;;;6.20;72.20;;;6.13;60.05;97147.75;6266483;22;20226;-37
2022/02/16 02:14:05;;;;;;;2.20;0.80;;;6.20;72.30;;;6.14;60.50;97142.31;6264427;22;20030;-37
2022/02/16 02:16:59;;;;;;;1.30;0.83;;;6.30;72.50;;;6.19;60.35;97148.03;6260408;22;20027;-37
2022/02/16 02:19:27;;;;;;;1.30;0.77;;;6.20;72.50;;;6.23;59.31;97127.41;6238075;22;20023;-37
2022/02/16 02:22:00;;;;;;;1.73;0.83;;;6.30;72.50;;;6.18;59.29;97119.91;6240041;22;20203;-37
2022/02/16 02:24:28;;;;;;;1.53;1.40;;;6.30;72.30;;;6.19;60.44;97126.88;6234787;23;20024;-37
2022/02/16 02:26:57;;;;;;;2.17;0.77;;;6.30;72.50;;;6.21;59.87;97132.84;6210607;23;20306;-38
2022/02/16 02:29:25;;;;;;;1.17;0.90;;;6.30;72.60;;;6.22;59.25;97117.81;6209776;23;20016;-37
2022/02/16 02:31:59;;;;;;;3.60;0.65;;;6.30;72.70;;;6.19;59.90;97111.00;6210161;23;20024;-37
2022/02/16 02:34:26;;;;;;;2.53;1.63;;;6.30;72.80;;;6.13;60.31;97103.69;6208009;23;20034;-38
2022/02/16 02:36:54;;;;;;;0.93;0.83;;;6.20;72.70;;;6.20;60.75;97098.63;6236400;23;20024;-37
2022/02/16 02:39:22;;;;;;;1.00;0.80;;;6.20;73.10;;;6.20;60.70;97106.56;6235762;23;20028;-37
2022/02/16 02:41:50;;;;;;;1.93;1.20;;;6.20;72.80;;;6.24;59.59;97102.63;6209469;23;20028;-37
2022/02/16 02:44:18;;;;;;;2.07;0.70;;;6.30;72.80;;;6.23;59.73;97093.88;6209880;23;20028;-37
2022/02/16 02:46:47;;;;;;;3.23;1.43;;;6.30;73.00;;;6.22;59.80;97079.00;6209354;23;20024;-37
2022/02/16 02:49:19;;;;;;;1.13;0.67;;;6.30;73.10;;;6.19;60.62;97067.91;6185383;23;20024;-37
2022/02/16 02:51:46;;;;;;;0.77;0.63;;;6.30;73.50;;;6.25;60.40;97059.38;6208418;23;20023;-37
2022/02/16 02:54:15;;;;;;;1.77;0.77;;;6.30;73.40;;;6.25;59.89;97056.72;6209716;23;20016;-37
2022/02/16 02:56:44;;;;;;;2.80;0.97;;;6.30;73.20;;;6.31;60.20;97053.50;6235719;23;20336;-37
2022/02/16 02:59:12;;;;;;;2.20;0.50;;;6.30;73.30;;;6.26;59.78;97046.00;6182723;23;20297;-37
2022/02/16 03:01:43;;;;;;;2.70;0.70;;;6.40;73.30;;;6.26;60.03;97042.53;6209136;23;20034;-37
2022/02/16 03:04:11;;;;;;;0.90;0.80;;;6.30;73.60;;;6.19;60.80;97054.69;6210850;23;20028;-37
2022/02/16 03:06:39;;;;;;;1.07;0.50;;;6.30;73.60;;;6.24;60.28;97034.75;6207225;23;20022;-38
2022/02/16 03:09:07;;;;;;;1.33;0.70;;;6.30;73.80;;;6.27;60.51;97039.72;6236465;23;20012;-38
2022/02/16 03:11:35;;;;;;;0.83;0.60;;;6.30;73.90;;;6.22;60.86;97030.59;6210522;23;20023;-37
2022/02/16 03:14:04;;;;;;;0.83;0.80;;;6.30;74.00;;;6.14;61.30;97035.78;6208832;23;20209;-37
2022/02/16 03:16:36;;;;;;;0.60;0.50;;;6.20;74.30;;;6.20;60.90;97030.72;6207273;23;20028;-37
2022/02/16 03:19:05;;;;;;;3.07;0.60;;;6.20;74.20;;;6.21;60.90;97021.81;6234199;23;20356;-37
2022/02/16 03:21:34;;;;;;;0.80;0.70;;;6.20;74.20;;;6.22;60.36;97020.88;6209525;23;20020;-38
2022/02/16 03:24:02;;;;;;;2.83;0.47;;;6.30;74.30;;;6.14;60.84;97018.09;6208627;23;20027;-37
2022/02/16 03:26:33;;;;;;;0.40;0.40;;;6.30;74.40;;;6.20;60.58;97020.16;6207857;23;20024;-37
2022/02/16 03:29:02;;;;;;;0.30;0.30;;;6.30;74.70;;;6.16;61.93;97047.03;6206707;23;20023;-37
2022/02/16 03:31:36;;;;;;;0.50;0.50;;;6.20;74.60;;;6.18;61.60;97034.50;6208365;23;20022;-38
2022/02/16 03:34:06;;;;;;;0.33;0.33;;;6.30;74.60;;;6.02;61.54;97025.41;6208823;23;20016;-37
2022/02/16 03:36:41;;;;;;;1.33;0.47;;;6.20;74.60;;;6.12;61.63;97020.06;6209724;23;20044;-37
2022/02/16 03:39:10;;;;;;;0.30;0.30;;;6.20;74.60;;;6.18;60.63;97005.44;6206818;23;20028;-38
2022/02/16 03:41:39;;;;;;;0.70;0.40;;;6.20;74.70;;;6.18;61.54;97006.25;6208000;23;20027;-37
2022/02/16 03:44:08;;;;;;;0.90;0.47;;;6.30;74.80;;;6.19;61.39;96996.53;6208374;23;20028;-37
2022/02/16 03:46:43;;;;;;;0.40;0.40;;;6.30;75.60;;;6.20;61.14;97000.81;6209424;23;20030;-38
2022/02/16 03:49:11;;;;;;;1.13;0.50;;;6.30;75.00;;;6.14;61.81;96999.59;6184856;23;20016;-37
2022/02/16 03:51:39;;;;;;;0.83;0.50;;;6.30;75.10;;;6.21;61.52;96991.94;6208711;23;20031;-37
2022/02/16 03:54:07;;;;;;;1.03;0.30;;;6.30;76.30;;;6.17;61.51;96991.41;6235434;23;20018;-37
2022/02/16 03:56:35;;;;;;;0.27;0.27;;;6.20;75.20;;;6.18;61.42;96993.03;6208472;23;20028;-37
2022/02/16 03:59:03;;;;;;;1.87;0.50;;;6.30;75.50;;;6.12;61.63;97001.56;6207023;23;20034;-37
2022/02/16 04:01:34;;;;;;;0.33;0.30;;;6.30;75.60;;;6.21;61.38;96982.19;6208011;23;20020;-37
2022/02/16 04:04:03;;;;;;;0.60;0.40;;;6.30;75.50;;;6.27;61.84;96984.22;6207836;23;20306;-37
2022/02/16 04:06:31;;;;;;;0.60;0.50;;;6.30;75.40;;;6.26;61.87;96985.22;6208617;23;20024;-37
2022/02/16 04:08:59;;;;;;;2.93;0.90;;;6.30;75.70;;;6.32;61.34;96991.72;6183991;23;20078;-38
2022/02/16 04:11:27;;;;;;;1.03;0.63;;;6.30;75.90;;;6.22;62.05;96968.00;6207598;23;20016;-37
2022/02/16 04:13:56;;;;;;;1.00;0.60;;;6.30;75.80;;;6.30;61.15;96964.56;6235460;23;20199;-38
2022/02/16 04:16:24;;;;;;;1.70;0.47;;;6.30;75.80;;;6.31;61.47;96956.50;6208456;23;20042;-38
2022/02/16 04:18:54;;;;;;;1.33;0.87;;;6.30;75.70;;;6.36;61.72;96963.13;6207324;23;20443;-37
2022/02/16 04:21:22;;;;;;;0.60;0.40;;;6.30;75.60;;;6.31;61.20;96966.25;6207323;23;20020;-38
2022/02/16 04:23:52;;;;;;;0.83;0.50;;;6.30;76.00;;;6.30;61.19;96976.00;6208612;23;20472;-38
2022/02/16 04:26:20;;;;;;;1.57;0.50;;;6.20;75.90;;;6.32;61.10;96973.22;6208374;23;20349;-38
2022/02/16 04:28:52;;;;;;;1.17;0.70;;;6.20;76.00;;;6.34;61.55;96973.03;6207044;23;20046;-37
2022/02/16 04:31:24;;;;;;;0.50;0.50;;;6.20;76.00;;;6.40;61.39;96977.75;6206844;23;20016;-37
2022/02/16 04:33:53;;;;;;;1.90;0.80;;;6.30;76.10;;;6.36;61.33;96985.16;6205601;23;20030;-38
2022/02/16 04:36:27;;;;;;;2.00;0.90;;;6.30;75.70;;;6.38;61.32;96971.75;6209585;23;20026;-38
2022/02/16 04:39:01;;;;;;;0.63;0.53;;;6.30;75.40;;;6.32;61.39;96973.22;6207968;23;20497;-37
2022/02/16 04:41:32;;;;;;;1.03;0.50;;;6.30;75.60;;;6.37;61.08;96963.00;6207047;23;20020;-38
2022/02/16 04:44:05;;;;;;;2.90;0.90;;;6.20;75.50;;;6.33;61.00;96963.47;6244165;23;20024;-38
2022/02/16 04:46:35;;;;;;;1.20;0.70;;;6.20;75.60;;;6.36;61.06;96960.50;6206629;23;20233;-38
2022/02/16 04:49:05;;;;;;;2.10;0.90;;;6.20;75.80;;;6.35;61.15;96953.56;6208897;23;20024;-37
2022/02/16 04:51:33;;;;;;;1.27;0.77;;;6.20;75.60;;;6.34;61.01;96949.25;6182337;23;20344;-37
2022/02/16 04:54:01;;;;;;;2.53;1.20;;;6.20;75.40;;;6.35;60.97;96951.75;6207733;23;20016;-37
2022/02/16 04:56:29;;;;;;;1.47;0.93;;;6.20;75.60;;;6.33;60.79;96935.19;6210394;23;20336;-37
2022/02/16 04:58:57;;;;;;;1.17;0.80;;;6.20;75.50;;;6.34;60.69;96936.03;6209922;23;20336;-38
2022/02/16 05:01:24;;;;;;;1.60;0.90;;;6.20;75.50;;;6.36;60.81;96934.06;6209270;23;20211;-46
2022/02/16 05:03:57;;;;;;;2.47;1.27;;;6.20;75.60;;;6.35;61.47;96929.75;6208769;23;20027;-38
2022/02/16 05:06:25;;;;;;;2.43;1.53;;;6.20;75.50;;;6.35;60.88;96924.47;6208587;23;20028;-38
2022/02/16 05:08:55;;;;;;;3.63;1.37;;;6.20;75.50;;;6.29;61.17;96918.81;6210495;23;20030;-38
2022/02/16 05:11:24;;;;;;;3.27;1.30;;;6.10;75.80;;;6.27;60.88;96915.47;6208774;23;20225;-38
2022/02/16 05:13:58;;;;;;;2.47;1.23;;;6.10;76.10;;;6.30;60.79;96922.28;6208397;23;20032;-38
2022/02/16 05:16:27;;;;;;;6.37;1.40;;;6.10;76.10;;;6.28;61.44;96927.75;6211238;23;20028;-38
2022/02/16 05:18:56;;;;;;;5.40;2.90;;;6.10;76.60;;;6.29;61.37;96923.28;6209518;23;20026;-38
2022/02/16 05:21:25;;;;;;;2.47;1.53;;;6.10;76.60;;;6.29;61.15;96910.88;6209486;23;20344;-38
2022/02/16 05:23:56;;;;;;;1.77;0.90;;;6.10;76.60;;;6.28;61.29;96913.66;6185093;23;20034;-38
2022/02/16 05:26:24;;;;;;;2.03;1.20;;;6.10;76.60;;;6.32;61.18;96917.69;6210396;23;20024;-38
2022/02/16 05:28:52;;;;;;;1.43;0.83;;;6.20;76.30;;;6.32;61.31;96907.13;6211549;23;20030;-38
2022/02/16 05:31:21;;;;;;;4.07;1.77;;;6.10;76.40;;;6.29;61.15;96888.91;6208395;23;20261;-38
2022/02/16 05:33:48;;;;;;;4.03;2.43;;;6.10;76.60;;;6.28;61.15;96892.50;6237039;23;20020;-37
2022/02/16 05:36:22;;;;;;;4.70;2.00;;;6.10;76.60;;;6.24;61.34;96901.75;6209156;23;20024;-37
2022/02/16 05:38:52;;;;;;;3.80;2.43;;;6.10;76.60;;;6.24;61.61;96889.38;6210071;23;20024;-38
2022/02/16 05:41:21;;;;;;;2.80;1.83;;;6.10;76.70;;;6.26;61.87;96895.34;6209941;23;20016;-37
2022/02/16 05:43:50;;;;;;;6.80;3.50;;;6.20;76.80;;;6.23;61.59;96881.59;6209669;23;20180;-37
2022/02/16 05:46:19;;;;;;;2.80;2.37;;;6.10;77.00;;;6.24;61.62;96878.81;6208683;23;20016;-37
2022/02/16 05:48:47;;;;;;;1.30;1.10;;;6.10;78.10;;;6.22;61.56;96888.69;6210137;23;20023;-38
2022/02/16 05:51:16;;;;;;;1.53;1.00;;;6.10;77.50;;;6.22;62.09;96872.00;6208336;23;20031;-38
2022/02/16 05:53:45;;;;;;;2.80;1.40;;;6.10;77.80;;;6.23;61.40;96876.31;6208467;23;20024;-37
2022/02/16 05:56:14;;;;;;;2.17;1.60;;;6.10;77.80;;;6.24;61.46;96870.03;6234318;23;20024;-37
2022/02/16 05:58:42;;;;;;;3.50;2.13;;;6.10;77.70;;;6.25;62.04;96874.34;6209585;23;20028;-37
2022/02/16 06:01:10;;;;;;;3.07;2.77;;;6.10;77.90;;;6.26;61.70;96863.63;6235910;23;20022;-38
2022/02/16 06:03:44;;;;;;;2.67;2.00;;;6.10;77.90;;;6.26;61.91;96860.13;6184263;23;20051;-38
2022/02/16 06:06:16;;;;;;;2.70;1.30;;;6.10;77.90;;;6.24;61.86;96854.16;6209549;23;20023;-37
2022/02/16 06:08:48;;;;;;;15.23;11.40;;;6.00;78.20;;;6.26;62.50;96866.25;6208697;23;20036;-38
2022/02/16 06:11:16;;;;;;;3.27;2.83;;;6.10;78.30;;;6.25;61.73;96850.53;6209994;23;20328;-38
2022/02/16 06:13:48;;;;;;;2.20;1.60;;;6.10;78.10;;;6.29;62.21;96857.19;6209657;23;20248;-38
2022/02/16 06:16:17;;;;;;;3.53;2.30;;;6.10;78.20;;;6.29;61.55;96843.97;6209043;23;20024;-38
2022/02/16 06:18:46;;;;;;;3.67;2.13;;;6.10;78.20;;;6.31;61.63;96855.22;6208293;23;20270;-38
2022/02/16 06:21:14;;;;;;;2.97;1.60;;;6.10;78.10;;;6.33;61.63;96860.34;6208971;23;20211;-38
2022/02/16 06:23:46;;;;;;;2.23;1.60;;;6.10;78.40;;;6.33;62.51;96855.06;6208588;23;20412;-38
2022/02/16 06:26:15;;;;;;;1.27;1.07;;;6.10;78.40;;;6.34;61.82;96859.34;6209366;23;20229;-38
2022/02/16 06:28:44;;;;;;;3.07;2.67;;;6.10;78.30;;;6.37;61.68;96853.78;6209998;23;20219;-38
2022/02/16 06:31:15;;;;;;;2.27;1.90;;;6.20;78.10;;;6.38;61.92;96850.13;6208963;23;20128;-38
2022/02/16 06:33:44;;;;;;;2.90;1.60;;;6.20;78.20;;;6.42;61.40;96846.22;6208788;23;20324;-38
2022/02/16 06:36:11;;;;;;;2.83;2.00;;;6.20;78.00;;;6.44;61.69;96847.72;6207841;23;20017;-38
2022/02/16 06:38:41;;;;;;;2.73;1.90;;;6.20;78.00;;;6.42;61.59;96840.94;6184239;23;20229;-38
2022/02/16 06:41:12;;;;;;;2.27;1.73;;;6.20;78.10;;;6.46;62.31;96839.63;6207131;23;20028;-37
2022/02/16 06:43:40;;;;;;;2.77;1.77;;;6.30;78.10;;;6.50;61.43;96843.63;6235826;23;20024;-38
2022/02/16 06:46:09;;;;;;;3.47;1.17;;;6.30;77.80;;;6.52;61.89;96835.53;6208341;23;20028;-38
2022/02/16 06:48:37;;;;;;;1.97;0.97;;;6.30;78.00;;;6.51;61.88;96839.97;6208102;23;20024;-38
2022/02/16 06:51:05;;;;;;;2.33;1.20;;;6.30;78.10;;;6.52;61.87;96838.19;6207465;23;20028;-38
2022/02/16 06:53:33;;;;;;;0.93;0.50;;;6.30;78.20;;;6.53;62.38;96839.81;6207878;23;20022;-38
2022/02/16 06:56:01;;;;;;;2.40;1.53;;;6.30;78.30;;;6.55;61.81;96838.69;6207233;23;20016;-38
2022/02/16 06:58:47;;;;;;;2.83;0.97;;;6.40;78.20;;;6.54;62.03;96834.38;6244763;23;20030;-38
2022/02/16 07:01:17;;;;;;;2.00;1.30;;;6.40;78.70;;;6.55;62.48;96836.03;6207369;23;20301;-38
2022/02/16 07:03:49;;;;;;;2.43;0.97;;;6.40;79.20;;;6.57;62.49;96825.31;6208979;23;20214;-38
2022/02/16 07:06:23;;;;;;;2.70;1.42;;;6.40;79.50;;;6.60;62.36;96830.28;6207282;23;20229;-38
2022/02/16 07:08:52;;;;;;;2.70;1.13;;;6.40;79.70;;;6.57;62.58;96822.66;6208940;23;20016;-39
2022/02/16 07:11:20;;;;;;;1.40;1.03;;;6.40;80.10;;;6.55;63.71;96827.28;6207248;23;20016;-39
2022/02/16 07:13:48;;;;;;;1.80;1.33;;;6.40;80.80;;;6.55;63.28;96816.69;6235926;23;20046;-38
2022/02/16 07:16:16;;;;;;;1.90;1.10;;;6.40;81.10;;;6.55;63.52;96825.44;6207805;23;20030;-38
2022/02/16 07:18:45;;;;;;;1.27;0.90;;;6.40;81.00;;;6.50;63.80;96814.53;6209802;23;20020;-39
2022/02/16 07:21:24;;;;;;;3.77;1.57;;;6.40;81.70;;;6.52;63.47;96809.91;6208627;23;20034;-39
2022/02/16 07:23:54;;;;;;;2.03;1.50;;;6.40;81.60;;;6.57;63.22;96812.09;6208315;23;20020;-39
2022/02/16 07:26:24;;;;;;;2.63;1.73;;;6.50;81.80;;;6.57;64.24;96812.09;6209392;23;20691;-38
2022/02/16 07:28:52;;;;;;;3.93;2.00;;;6.60;81.50;;;6.62;64.19;96815.91;6207772;23;20024;-38
2022/02/16 07:31:22;;;;;;;1.97;1.13;;;6.60;81.60;;;6.56;64.67;96826.31;6207961;23;20023;-39
2022/02/16 07:33:50;;;;;;;2.97;1.27;;;6.60;82.00;;;6.60;63.90;96804.66;6231613;23;20012;-38
2022/02/16 07:36:18;;;;;;;3.00;1.73;;;6.60;82.30;;;6.63;63.82;96798.22;6207360;23;20024;-39
2022/02/16 07:38:48;;;;;;;0.87;0.73;;;6.60;82.30;;;6.63;63.91;96796.44;6208180;23;20031;-38
2022/02/16 07:41:16;;;;;;;1.60;0.60;;;6.60;83.00;;;6.59;64.28;96792.44;6207124;23;20020;-37
2022/02/16 07:44:04;;;;;;;1.07;0.50;;;6.60;83.10;;;6.60;64.45;96796.75;6220163;23;20038;-38
2022/02/16 07:46:47;;;;;;;1.13;0.90;;;6.60;82.20;;;6.65;64.73;96788.31;6207235;23;20020;-38
2022/02/16 07:49:16;;;;;;;3.20;1.30;;;6.70;82.10;;;6.71;64.31;96795.66;6206382;23;20022;-38
2022/02/16 07:52:07;;;;;;;0.70;0.63;;;6.70;82.20;;;6.73;64.06;96790.19;6212891;23;20027;-38
2022/02/16 07:54:51;;;;;;;0.65;0.60;;;6.70;82.30;;;6.76;64.53;96788.03;6207176;23;20375;-37
2022/02/16 07:57:31;;;;;;;0.80;0.80;;;6.70;82.80;;;6.77;64.00;96775.66;6208939;23;20024;-38
2022/02/16 08:00:00;;;;;;;1.37;0.87;;;6.70;83.20;;;6.77;64.43;96780.97;6209141;23;20024;-38
2022/02/16 08:02:29;;;;;;;0.80;0.70;;;6.70;83.40;;;6.78;64.34;96783.44;6205652;23;20038;-37
2022/02/16 08:04:58;;;;;;;0.50;0.50;;;6.70;83.60;;;6.78;64.56;96772.84;6207431;23;20187;-37
2022/02/16 08:07:26;;;;;;;1.03;0.70;;;6.70;83.60;;;6.83;65.04;96780.31;6209747;23;20024;-37
2022/02/16 08:09:54;;;;;;;0.77;0.63;;;6.80;83.60;;;6.87;64.34;96779.00;6207767;23;20083;-37
2022/02/16 08:12:22;;;;;;;0.80;0.80;;;6.80;83.60;;;6.85;64.32;96784.47;6235233;23;20026;-37
2022/02/16 08:14:50;;;;;;;0.83;0.67;;;6.90;83.20;;;6.81;64.48;96777.84;6206009;23;20039;-37
2022/02/16 08:17:18;;;;;;;0.43;0.43;;;6.90;83.20;;;6.85;64.62;96773.88;6183404;23;20030;-37
2022/02/16 08:19:47;;;;;;;1.10;0.63;;;6.90;83.50;;;6.85;65.25;96778.34;6206411;23;20332;-37
2022/02/16 08:22:15;;;;;;;0.80;0.57;;;6.90;83.20;;;6.89;65.35;96764.63;6234181;23;20020;-37
2022/02/16 08:24:43;;;;;;;0.70;0.70;;;7.00;83.20;;;6.92;65.52;96775.88;6208249;23;20043;-38
2022/02/16 08:27:30;;;;;;;1.40;0.80;;;7.00;83.20;;;6.98;64.81;96759.34;6209328;23;20024;-37
2022/02/16 08:30:10;;;;;;;0.67;0.50;;;7.10;83.40;;;7.01;64.89;96751.94;6206169;23;20038;-37
2022/02/16 08:32:40;;;;;;;0.40;0.37;;;7.10;83.50;;;7.06;65.28;96751.47;6209012;23;20016;-38
2022/02/16 08:35:14;;;;;;;0.53;0.53;;;7.10;84.70;;;7.02;65.81;96748.31;6207441;23;20022;-37
2022/02/16 08:37:42;;;;;;;3.27;1.40;;;7.10;84.90;;;7.04;65.92;96738.38;6234242;23;20012;-37
2022/02/16 08:40:11;;;;;;;5.43;2.80;;;7.10;85.50;;;7.03;65.48;96735.91;6234536;23;20018;-37
2022/02/16 08:42:40;;;;;;;2.87;1.50;;;7.10;85.80;;;7.05;65.94;96720.69;6233710;23;20022;-37
2022/02/16 08:45:09;;;;;;;2.93;1.43;;;7.00;87.40;;;7.02;66.12;96723.66;6233860;23;20020;-37
2022/02/16 08:47:39;;;;;;;2.53;1.57;;;7.00;87.00;;;7.05;65.82;96725.97;6234786;23;20020;-37
2022/02/16 08:50:08;;;;;;;1.43;1.20;;;7.10;88.00;;;7.05;66.51;96726.81;6233436;23;20226;-38
2022/02/16 08:52:36;;;;;;;1.30;1.20;;;7.10;87.70;;;7.03;66.38;96712.91;6234602;23;20247;-37
2022/02/16 08:55:05;;;;;;;0.97;0.83;;;7.10;90.00;;;6.99;66.43;96716.88;6207607;23;20016;-37
2022/02/16 08:57:33;;;;;;;1.30;1.10;;;7.00;90.00;;;7.01;66.66;96725.47;6235170;23;20012;-37
2022/02/16 09:00:01;;;;;;;3.17;1.27;;;6.90;90.80;;;6.93;67.44;96720.16;6230964;23;20034;-37
2022/02/16 09:02:30;;;;;;;2.43;1.77;;;7.00;91.70;;;6.94;67.10;96720.97;6233571;23;20031;-37
2022/02/16 09:05:01;;;;;;;1.53;0.73;;;7.00;93.40;;;6.95;66.92;96718.19;6243307;23;20020;-38
2022/02/16 09:07:29;;;;;;;2.90;1.00;;;7.00;93.80;;;6.99;66.87;96710.75;6242663;23;20032;-37
2022/02/16 09:10:09;;;;;;;1.03;0.67;;;7.00;95.00;;;6.97;68.54;96713.56;6185458;23;20174;-38
2022/02/16 09:12:40;;;;;;;1.73;0.60;;;7.10;96.40;;;7.07;67.60;96708.13;6233672;23;20024;-38
2022/02/16 09:15:08;;;;;;;0.80;0.60;;;7.00;97.00;;;7.07;67.77;96705.47;6233438;23;20027;-37
2022/02/16 09:17:36;;;;;;;1.00;0.47;;;7.10;97.80;;;7.17;67.00;96718.56;6233947;23;20020;-38
2022/02/16 09:20:06;;;;;;;2.97;0.90;;;7.10;98.30;;;7.21;67.46;96715.44;6234881;23;20016;-39
2022/02/16 09:22:35;;;;;;;0.80;0.80;;;7.20;99.00;;;7.24;67.42;96712.44;6235031;23;20031;-39
2022/02/16 09:25:03;;;;;;;1.03;0.80;;;7.20;98.20;;;7.22;67.67;96714.44;6233910;23;20016;-39
2022/02/16 09:27:31;;;;;;;1.13;0.80;;;7.20;98.30;;;7.29;66.93;96711.97;6209600;23;20024;-39
2022/02/16 09:29:58;;;;;;;1.40;0.93;;;7.30;98.50;;;7.34;67.54;96704.34;6234502;23;20020;-39
2022/02/16 09:32:27;;;;;;;2.67;1.00;;;7.30;99.40;;;7.36;67.19;96690.97;6235060;23;20034;-39
2022/02/16 09:34:55;;;;;;;0.50;0.50;;;7.30;99.90;;;7.35;67.71;96708.69;6232356;23;20016;-39
2022/02/16 09:37:27;;;;;;;1.33;0.70;;;7.30;99.70;;;7.33;67.77;96680.69;6235061;23;20031;-39
2022/02/16 09:39:55;;;;;;;0.97;0.83;;;7.30;99.60;;;7.32;67.63;96679.88;6234908;23;20326;-39
2022/02/16 09:42:23;;;;;;;0.83;0.70;;;7.40;98.60;;;7.40;67.15;96674.56;6236841;23;20023;-39
2022/02/16 09:45:06;;;;;;;1.10;1.00;;;7.40;98.30;;;7.47;67.25;96672.94;6209840;23;20024;-39
2022/02/16 09:47:34;;;;;;;0.60;0.50;;;7.50;98.40;;;7.50;67.07;96663.81;6247410;23;20431;-39
2022/02/16 09:50:10;;;;;;;2.60;0.93;;;7.60;97.60;;;7.55;67.27;96656.22;6208890;23;20102;-38
2022/02/16 09:52:38;;;;;;;1.87;1.00;;;7.60;97.30;;;7.56;66.99;96649.94;6236874;23;20019;-38
2022/02/16 09:55:08;;;;;;;1.40;0.70;;;7.60;97.00;;;7.55;67.34;96652.75;6209236;23;20020;-38
2022/02/16 09:57:37;;;;;;;0.73;0.70;;;7.60;96.50;;;7.58;66.78;96655.88;6237377;23;20043;-38
2022/02/16 10:00:08;;;;;;;1.40;0.73;;;7.60;96.40;;;7.55;66.79;96664.16;6236536;23;20024;-38
2022/02/16 10:02:43;;;;;;;0.77;0.77;;;7.70;95.10;;;7.56;66.86;96654.38;6209715;23;20028;-38
2022/02/16 10:05:16;;;;;;;0.77;0.70;;;7.70;94.90;;;7.58;67.05;96661.19;6247418;23;20024;-38
2022/02/16 10:07:49;;;;;;;1.70;1.10;;;7.70;94.80;;;7.63;66.89;96668.63;6236294;23;20030;-38
2022/02/16 10:10:29;;;;;;;0.60;0.50;;;7.80;94.30;;;7.65;66.81;96678.03;6246696;23;20020;-39
2022/02/16 10:12:58;;;;;;;0.97;0.70;;;7.80;94.00;;;7.68;66.86;96671.59;6246070;23;20020;-38
2022/02/16 10:15:35;;;;;;;0.93;0.60;;;7.80;93.20;;;7.67;66.97;96662.81;6236561;23;20020;-38
2022/02/16 10:18:14;;;;;;;1.63;0.60;;;7.80;93.10;;;7.68;66.94;96672.44;6247538;23;20012;-39
2022/02/16 10:20:44;;;;;;;0.60;0.50;;;7.90;93.00;;;7.80;66.94;96674.75;6235091;23;20028;-38
2022/02/16 10:23:12;;;;;;;0.83;0.60;;;7.90;93.00;;;7.84;66.70;96679.53;6182916;23;20320;-39
2022/02/16 10:25:50;;;;;;;3.53;1.47;;;8.00;92.70;;;7.86;66.78;96674.88;6236609;23;20024;-39
2022/02/16 10:28:22;;;;;;;2.60;1.47;;;8.00;92.40;;;7.86;66.51;96669.59;6235953;23;20031;-39
2022/02/16 10:31:04;;;;;;;1.07;0.70;;;8.10;92.20;;;7.90;66.56;96656.81;6246637;23;20298;-38
2022/02/16 10:33:47;;;;;;;0.77;0.60;;;8.10;92.10;;;7.91;66.57;96663.78;6245950;23;20019;-39
2022/02/16 10:36:19;;;;;;;0.90;0.87;;;8.10;92.40;;;7.96;66.91;96650.84;6241572;23;20322;-38
2022/02/16 10:39:06;;;;;;;0.87;0.50;;;8.10;93.00;;;8.01;67.26;96653.00;6233293;23;20016;-38
2022/02/16 10:41:54;;;;;;;0.37;0.37;;;8.20;93.70;;;8.00;66.85;96646.03;6235351;23;20024;-38
2022/02/16 10:44:31;;;;;;;0.50;0.50;;;8.20;92.80;;;8.09;66.97;96637.91;6235348;23;20016;-39
2022/02/16 10:47:11;;;;;;;1.20;0.40;;;8.30;92.90;;;8.18;67.28;96624.59;6245839;23;20205;-38